Time;durP1;ratioP1;P1;durP2;ratioP2;P2;SDS_P1;SDS_P2;PMS_P1;PMS_P2;Temp;Humidity;BMP_temperature;BMP_pressure;BME280_temperature;BME280_humidity;BME280_pressure;Samples;Min_cycle;Max_cycle;Signal;HPM_P1;HPM_P2
2021/01/14 00:00:30;;;;;;;4.05;1.42;;;17.40;53.90;;;;;;5083561;28;20177;-62
2021/01/14 00:02:55;;;;;;;1.80;1.10;;;17.40;53.80;;;;;;5083884;28;20182;-62
2021/01/14 00:05:21;;;;;;;2.30;1.00;;;17.40;53.80;;;;;;5083579;28;20517;-62
2021/01/14 00:07:49;;;;;;;1.27;1.02;;;17.40;53.80;;;;;;5065955;28;20181;-63
2021/01/14 00:10:15;;;;;;;1.80;1.10;;;17.40;53.80;;;;;;5085850;28;20177;-63
2021/01/14 00:12:41;;;;;;;1.52;1.00;;;17.40;53.80;;;;;;5087289;28;20173;-63
2021/01/14 00:15:07;;;;;;;3.03;1.00;;;17.40;53.70;;;;;;5087427;28;20571;-62
2021/01/14 00:17:32;;;;;;;4.03;1.35;;;17.30;53.70;;;;;;5087391;28;20369;-62
2021/01/14 00:19:58;;;;;;;1.10;1.00;;;17.30;53.70;;;;;;5087380;28;20916;-61
2021/01/14 00:22:24;;;;;;;1.15;0.90;;;17.30;53.70;;;;;;5087181;28;20240;-61
2021/01/14 00:24:49;;;;;;;2.55;1.15;;;17.30;53.60;;;;;;5087189;28;20185;-62
2021/01/14 00:27:15;;;;;;;1.92;1.10;;;17.20;53.60;;;;;;5086988;28;20512;-62
2021/01/14 00:29:40;;;;;;;3.22;1.23;;;17.20;53.60;;;;;;5069300;28;20213;-61
2021/01/14 00:32:06;;;;;;;2.03;0.98;;;17.20;53.50;;;;;;5086888;28;20541;-60
2021/01/14 00:34:32;;;;;;;2.08;1.20;;;17.20;53.60;;;;;;5087428;28;20181;-60
2021/01/14 00:39:41;;;;;;;2.05;0.82;;;17.20;53.50;;;;;;5071344;28;20587;-62
2021/01/14 00:42:07;;;;;;;2.75;1.05;;;17.10;53.40;;;;;;5087052;28;20213;-62
2021/01/14 00:44:33;;;;;;;2.05;1.17;;;17.10;53.50;;;;;;5086887;28;20670;-62
2021/01/14 00:46:59;;;;;;;4.32;1.23;;;17.10;53.50;;;;;;5087340;28;20219;-62
2021/01/14 00:49:25;;;;;;;1.58;1.00;;;17.10;53.40;;;;;;5086939;28;20197;-62
2021/01/14 00:51:51;;;;;;;1.25;1.10;;;17.10;53.40;;;;;;5069149;28;20659;-62
2021/01/14 00:54:16;;;;;;;2.30;0.93;;;17.10;53.50;;;;;;5086430;28;20206;-61
2021/01/14 00:56:42;;;;;;;1.75;1.20;;;17.10;53.50;;;;;;5086782;28;20373;-62
2021/01/14 00:59:07;;;;;;;1.38;0.98;;;17.10;53.50;;;;;;5086587;28;20177;-61
2021/01/14 01:01:33;;;;;;;2.20;1.10;;;17.00;53.30;;;;;;5086399;28;20268;-61
2021/01/14 01:03:59;;;;;;;2.03;1.25;;;17.00;53.40;;;;;;5068559;28;20192;-61
2021/01/14 01:06:32;;;;;;;1.70;0.90;;;17.00;53.30;;;;;;5086643;28;20178;-62
2021/01/14 01:08:58;;;;;;;1.52;1.10;;;17.00;53.30;;;;;;5068613;28;20177;-62
2021/01/14 01:11:24;;;;;;;1.92;0.93;;;17.00;53.20;;;;;;5086783;28;20638;-61
2021/01/14 01:13:49;;;;;;;0.98;0.77;;;17.00;53.40;;;;;;5086833;28;20592;-61
2021/01/14 01:16:15;;;;;;;1.55;0.90;;;17.00;53.30;;;;;;5086379;28;20285;-61
2021/01/14 01:18:41;;;;;;;1.33;0.80;;;17.00;53.90;;;;;;5086447;28;20662;-61
2021/01/14 01:21:07;;;;;;;2.83;1.00;;;16.90;53.20;;;;;;5086138;28;20209;-63
2021/01/14 01:23:32;;;;;;;2.67;1.13;;;16.90;53.10;;;;;;5086106;28;20893;-62
2021/01/14 01:25:58;;;;;;;2.05;0.90;;;16.90;53.20;;;;;;5086307;28;20186;-62
2021/01/14 01:28:23;;;;;;;1.27;0.75;;;16.90;53.20;;;;;;5085789;28;20181;-61
2021/01/14 01:30:49;;;;;;;2.15;0.90;;;16.80;53.00;;;;;;5086079;28;20692;-61
2021/01/14 01:33:14;;;;;;;1.50;0.95;;;16.90;53.10;;;;;;5086080;28;20178;-62
2021/01/14 01:35:40;;;;;;;1.83;1.02;;;16.90;53.20;;;;;;5085865;28;20180;-61
2021/01/14 01:38:05;;;;;;;1.15;0.90;;;16.90;53.20;;;;;;5085757;28;20260;-62
2021/01/14 01:40:31;;;;;;;1.73;0.93;;;16.90;53.00;;;;;;5086087;28;20213;-63
2021/01/14 01:42:57;;;;;;;1.92;1.00;;;16.80;53.00;;;;;;5085925;28;20193;-62
2021/01/14 01:45:22;;;;;;;1.17;0.90;;;16.80;53.00;;;;;;5085611;28;20896;-62
2021/01/14 01:47:48;;;;;;;1.85;0.90;;;16.80;53.00;;;;;;5085654;28;20165;-62
2021/01/14 01:50:14;;;;;;;2.50;0.85;;;16.80;52.90;;;;;;5085704;28;20184;-62
2021/01/14 01:52:39;;;;;;;2.58;0.93;;;16.80;52.90;;;;;;5067476;28;20174;-60
2021/01/14 01:55:06;;;;;;;1.42;0.93;;;16.80;53.00;;;;;;5067682;28;20543;-61
2021/01/14 01:57:32;;;;;;;2.53;0.85;;;16.80;52.90;;;;;;5085613;28;20174;-61
2021/01/14 01:59:58;;;;;;;2.20;1.13;;;16.80;52.90;;;;;;5067449;28;20188;-61
2021/01/14 02:02:25;;;;;;;1.85;0.90;;;16.80;52.80;;;;;;5085275;28;20209;-62
2021/01/14 02:04:51;;;;;;;2.78;1.02;;;16.70;52.80;;;;;;5085549;28;20174;-62
2021/01/14 02:07:47;;;;;;;1.52;1.00;;;16.70;52.80;;;;;;5085239;28;20201;-61
2021/01/14 02:10:18;;;;;;;2.25;0.90;;;16.70;52.80;;;;;;5078353;28;20200;-61
2021/01/14 02:13:22;;;;;;;1.65;0.77;;;16.70;52.80;;;;;;5067170;28;20675;-62
2021/01/14 02:15:48;;;;;;;2.17;1.17;;;16.70;52.70;;;;;;5081308;28;20212;-61
2021/01/14 02:18:17;;;;;;;2.33;0.82;;;16.70;52.80;;;;;;5085350;28;20177;-61
2021/01/14 02:20:43;;;;;;;1.40;0.90;;;16.70;52.70;;;;;;5067287;28;20220;-63
2021/01/14 02:23:43;;;;;;;1.52;0.90;;;16.70;52.60;;;;;;5067236;28;20643;-61
2021/01/14 02:26:25;;;;;;;2.13;0.90;;;16.70;52.60;;;;;;5080919;28;20276;-62
2021/01/14 02:28:52;;;;;;;1.40;0.90;;;16.70;52.60;;;;;;5084918;28;20198;-61
2021/01/14 02:31:18;;;;;;;1.75;1.00;;;16.60;52.60;;;;;;5084715;28;20211;-61
2021/01/14 02:33:44;;;;;;;1.25;0.85;;;16.60;52.50;;;;;;5065903;28;20981;-61
2021/01/14 02:36:10;;;;;;;2.15;1.08;;;16.60;52.60;;;;;;5084808;28;20202;-61
2021/01/14 02:38:37;;;;;;;1.55;1.23;;;16.60;52.50;;;;;;5084525;28;20235;-61
2021/01/14 02:41:02;;;;;;;1.10;0.95;;;16.50;52.50;;;;;;5084839;28;20215;-61
2021/01/14 02:43:28;;;;;;;1.42;0.93;;;16.60;52.50;;;;;;5084712;28;20178;-62
2021/01/14 02:45:53;;;;;;;1.52;0.90;;;16.60;52.50;;;;;;5066889;28;20174;-61
2021/01/14 02:48:33;;;;;;;2.33;0.88;;;16.60;52.40;;;;;;5066423;28;20170;-62
2021/01/14 02:51:00;;;;;;;2.17;1.02;;;16.60;52.40;;;;;;5066275;28;20170;-62
2021/01/14 02:53:26;;;;;;;1.83;0.70;;;16.50;52.40;;;;;;5066924;28;20182;-60
2021/01/14 02:55:52;;;;;;;0.98;0.75;;;16.50;53.00;;;;;;5066530;28;20178;-61
2021/01/14 02:58:17;;;;;;;2.03;1.33;;;16.60;52.40;;;;;;5066409;28;20177;-61
2021/01/14 03:00:43;;;;;;;1.20;0.60;;;16.50;52.40;;;;;;5083986;28;20266;-60
2021/01/14 03:03:08;;;;;;;1.05;0.90;;;16.50;52.40;;;;;;5084854;28;20650;-61
2021/01/14 03:05:34;;;;;;;1.73;0.70;;;16.50;52.40;;;;;;5084666;28;20271;-62
2021/01/14 03:08:00;;;;;;;2.60;0.70;;;16.50;52.30;;;;;;5084410;28;21005;-61
2021/01/14 03:10:25;;;;;;;0.70;0.60;;;16.40;52.30;;;;;;5084242;28;20178;-61
2021/01/14 03:12:51;;;;;;;1.95;0.80;;;16.50;52.40;;;;;;5084499;28;20180;-61
2021/01/14 03:15:17;;;;;;;1.55;0.63;;;16.40;52.30;;;;;;5084286;28;20177;-60
2021/01/14 03:17:42;;;;;;;1.00;0.90;;;16.50;52.30;;;;;;5084378;28;20182;-61
2021/01/14 03:20:08;;;;;;;1.27;0.65;;;16.40;52.30;;;;;;5084207;28;20962;-61
2021/01/14 03:22:37;;;;;;;1.02;0.70;;;16.40;52.30;;;;;;5083661;28;21041;-61
2021/01/14 03:25:05;;;;;;;2.05;0.60;;;16.40;52.30;;;;;;5066268;28;20636;-62
2021/01/14 03:27:34;;;;;;;2.30;1.00;;;16.40;52.20;;;;;;5084060;28;20257;-62
2021/01/14 03:30:00;;;;;;;1.35;0.85;;;16.40;52.30;;;;;;5066848;28;20251;-61
2021/01/14 03:32:25;;;;;;;0.63;0.60;;;16.40;52.30;;;;;;5084281;28;20206;-61
2021/01/14 03:34:51;;;;;;;0.75;0.60;;;16.40;52.30;;;;;;5084366;28;20209;-60
2021/01/14 03:37:17;;;;;;;1.25;0.93;;;16.40;52.30;;;;;;5084125;28;20170;-61
2021/01/14 03:39:42;;;;;;;0.63;0.63;;;16.40;52.20;;;;;;5084123;28;20908;-61
2021/01/14 03:42:08;;;;;;;1.58;0.77;;;16.30;52.20;;;;;;5084026;28;20596;-60
2021/01/14 03:44:33;;;;;;;0.60;0.57;;;16.40;52.20;;;;;;5085436;28;20513;-62
2021/01/14 03:46:59;;;;;;;2.50;1.33;;;16.40;52.20;;;;;;5088058;28;20177;-61
2021/01/14 03:49:24;;;;;;;1.60;0.88;;;16.30;52.20;;;;;;5088063;28;20174;-61
2021/01/14 03:51:50;;;;;;;0.93;0.65;;;16.30;52.20;;;;;;5087676;28;20174;-61
2021/01/14 03:54:21;;;;;;;1.75;0.93;;;16.30;52.20;;;;;;5088055;28;20166;-61
2021/01/14 03:56:47;;;;;;;1.33;0.70;;;16.30;52.20;;;;;;5087834;28;20181;-61
2021/01/14 03:59:12;;;;;;;1.33;0.75;;;16.30;52.10;;;;;;5087719;28;20188;-61
2021/01/14 04:01:38;;;;;;;2.40;1.58;;;16.30;52.10;;;;;;5087377;28;20220;-61
2021/01/14 04:04:03;;;;;;;1.48;0.73;;;16.30;52.20;;;;;;5087597;28;20187;-60
2021/01/14 04:06:36;;;;;;;1.35;0.80;;;16.30;52.10;;;;;;5087725;28;20239;-61
2021/01/14 04:09:02;;;;;;;1.52;0.77;;;16.20;52.00;;;;;;5087700;28;20180;-60
2021/01/14 04:11:28;;;;;;;0.75;0.70;;;16.30;52.10;;;;;;5069744;28;20679;-60
2021/01/14 04:13:53;;;;;;;1.90;0.90;;;16.30;52.10;;;;;;5087948;28;20188;-61
2021/01/14 04:16:19;;;;;;;0.63;0.55;;;16.20;52.10;;;;;;5087275;28;20410;-61
2021/01/14 04:18:45;;;;;;;0.98;0.60;;;16.20;52.10;;;;;;5087505;28;20966;-61
2021/01/14 04:21:14;;;;;;;1.00;0.80;;;16.20;52.00;;;;;;5087368;28;20209;-60
2021/01/14 04:23:40;;;;;;;1.08;0.70;;;16.20;52.00;;;;;;5069966;28;20169;-61
2021/01/14 04:26:05;;;;;;;1.85;0.80;;;16.20;52.00;;;;;;5069878;28;20174;-61
2021/01/14 04:28:31;;;;;;;2.03;0.88;;;16.20;52.10;;;;;;5087078;28;20659;-61
2021/01/14 04:30:56;;;;;;;1.23;0.82;;;16.20;52.00;;;;;;5086996;28;20219;-61
2021/01/14 04:33:22;;;;;;;0.85;0.63;;;16.20;52.00;;;;;;5087290;28;20185;-62
2021/01/14 04:35:52;;;;;;;0.65;0.60;;;16.20;52.00;;;;;;5087154;28;20217;-61
2021/01/14 04:38:19;;;;;;;0.73;0.55;;;16.20;52.10;;;;;;5087199;28;20174;-62
2021/01/14 04:40:45;;;;;;;1.20;0.70;;;16.20;52.00;;;;;;5087181;28;20201;-63
2021/01/14 04:43:11;;;;;;;1.00;0.80;;;16.10;51.90;;;;;;5087098;28;20343;-61
2021/01/14 04:45:41;;;;;;;1.15;0.82;;;16.10;52.00;;;;;;5087086;28;20720;-63
2021/01/14 04:48:11;;;;;;;0.73;0.60;;;16.10;52.00;;;;;;5086975;28;20201;-62
2021/01/14 04:50:39;;;;;;;1.65;1.05;;;16.10;52.00;;;;;;5068969;28;20578;-62
2021/01/14 04:53:06;;;;;;;1.45;1.15;;;16.10;51.90;;;;;;5069640;28;20178;-63
2021/01/14 04:55:53;;;;;;;0.90;0.68;;;16.10;52.00;;;;;;5086605;28;20177;-60
2021/01/14 04:58:19;;;;;;;1.70;0.77;;;16.10;51.90;;;;;;5069091;28;20182;-61
2021/01/14 05:00:51;;;;;;;0.95;0.73;;;16.10;51.90;;;;;;5068784;28;20194;-61
2021/01/14 05:03:21;;;;;;;1.45;0.95;;;16.10;51.90;;;;;;5068846;28;20198;-61
2021/01/14 05:05:47;;;;;;;1.42;0.80;;;16.00;51.90;;;;;;5086721;28;20638;-61
2021/01/14 05:08:14;;;;;;;2.33;0.80;;;16.00;51.90;;;;;;5068965;28;20185;-62
2021/01/14 05:10:39;;;;;;;1.85;0.80;;;16.00;51.90;;;;;;5086465;28;20165;-63
2021/01/14 05:13:05;;;;;;;2.10;1.00;;;16.00;51.90;;;;;;5068834;28;20166;-61
2021/01/14 05:15:30;;;;;;;1.38;0.73;;;15.90;51.80;;;;;;5086602;28;20166;-61
2021/01/14 05:17:57;;;;;;;1.13;0.60;;;16.00;51.90;;;;;;5068592;28;20247;-62
2021/01/14 05:20:23;;;;;;;1.48;0.85;;;16.00;51.80;;;;;;5068575;28;20220;-62
2021/01/14 05:22:49;;;;;;;1.55;0.77;;;16.00;51.90;;;;;;5086226;28;20209;-62
2021/01/14 05:25:15;;;;;;;1.15;1.00;;;15.90;51.80;;;;;;5068649;28;20641;-62
2021/01/14 05:27:41;;;;;;;1.65;0.70;;;16.00;51.90;;;;;;5086505;28;20179;-61
2021/01/14 05:30:08;;;;;;;0.82;0.70;;;15.90;51.80;;;;;;5068426;28;20229;-61
2021/01/14 05:32:38;;;;;;;0.98;0.75;;;15.90;51.80;;;;;;5086535;28;20178;-61
2021/01/14 05:35:07;;;;;;;1.40;0.70;;;15.90;51.80;;;;;;5086229;28;20178;-61
2021/01/14 05:37:42;;;;;;;0.80;0.80;;;15.90;51.80;;;;;;5086149;28;20174;-60
2021/01/14 05:40:08;;;;;;;1.23;0.73;;;15.90;51.80;;;;;;5068628;28;20569;-61
2021/01/14 05:42:34;;;;;;;1.58;0.95;;;15.90;51.70;;;;;;5085906;28;20568;-61
2021/01/14 05:44:59;;;;;;;1.30;1.00;;;15.90;51.80;;;;;;5085931;28;20173;-62
2021/01/14 05:47:26;;;;;;;2.13;0.90;;;15.90;51.70;;;;;;5067948;28;20694;-61
2021/01/14 05:49:57;;;;;;;1.73;0.90;;;15.80;51.70;;;;;;5067929;28;20204;-61
2021/01/14 05:52:23;;;;;;;2.80;1.40;;;15.90;51.70;;;;;;5068308;28;20173;-61
2021/01/14 05:55:10;;;;;;;3.33;1.15;;;15.90;51.70;;;;;;5085794;28;20169;-62
2021/01/14 05:57:39;;;;;;;1.67;0.75;;;15.80;51.80;;;;;;5085717;28;20174;-61
2021/01/14 06:00:13;;;;;;;0.95;0.88;;;15.90;51.90;;;;;;5085604;28;20177;-60
2021/01/14 06:02:39;;;;;;;1.55;1.02;;;15.90;52.00;;;;;;5085102;28;20713;-60
2021/01/14 06:05:28;;;;;;;1.08;0.75;;;15.90;52.00;;;;;;5085507;28;20166;-61
2021/01/14 06:07:54;;;;;;;1.35;0.93;;;16.00;52.10;;;;;;5084783;28;20623;-61
2021/01/14 06:10:33;;;;;;;1.40;0.75;;;16.20;52.10;;;;;;5085186;28;20178;-62
2021/01/14 06:12:58;;;;;;;1.35;0.80;;;16.50;51.90;;;;;;5085416;28;20232;-62
2021/01/14 06:15:24;;;;;;;1.75;0.90;;;16.80;51.50;;;;;;5085048;28;20205;-62
2021/01/14 06:17:50;;;;;;;0.85;0.82;;;17.10;51.10;;;;;;5085257;28;20166;-62
2021/01/14 06:20:15;;;;;;;1.23;0.80;;;17.50;50.60;;;;;;5067125;28;20182;-61
2021/01/14 06:22:43;;;;;;;1.50;0.90;;;17.80;49.80;;;;;;5085043;28;20291;-61
2021/01/14 06:25:09;;;;;;;1.13;0.70;;;18.10;49.40;;;;;;5066976;28;20209;-61
2021/01/14 06:27:35;;;;;;;0.63;0.60;;;18.30;49.00;;;;;;5084957;28;20186;-61
2021/01/14 06:30:10;;;;;;;1.23;0.82;;;18.40;48.80;;;;;;5067082;28;20204;-60
2021/01/14 06:32:37;;;;;;;1.38;0.90;;;18.50;48.60;;;;;;5085311;28;20269;-60
2021/01/14 06:35:07;;;;;;;1.17;1.08;;;18.50;48.50;;;;;;5084884;28;20234;-60
2021/01/14 06:37:41;;;;;;;1.10;1.00;;;18.70;48.40;;;;;;5084781;28;20170;-60
2021/01/14 06:40:07;;;;;;;1.10;0.80;;;18.70;48.30;;;;;;5066862;28;20184;-61
2021/01/14 06:42:34;;;;;;;1.13;0.80;;;18.60;48.30;;;;;;5084666;28;20213;-62
2021/01/14 06:45:04;;;;;;;0.98;0.80;;;18.70;48.40;;;;;;5084682;28;20170;-62
2021/01/14 06:47:40;;;;;;;2.35;1.02;;;18.70;48.40;;;;;;5084698;28;20190;-62
2021/01/14 06:50:24;;;;;;;1.42;1.08;;;18.70;48.60;;;;;;5066968;28;20214;-62
2021/01/14 06:53:10;;;;;;;1.27;1.00;;;18.70;48.50;;;;;;5084556;28;20178;-61
2021/01/14 06:55:38;;;;;;;1.17;1.00;;;18.60;48.60;;;;;;5066767;28;20589;-61
2021/01/14 06:58:05;;;;;;;1.13;0.90;;;18.60;48.70;;;;;;5084724;28;20543;-60
2021/01/14 07:00:31;;;;;;;1.40;1.08;;;18.60;48.80;;;;;;5099780;28;20635;-61
2021/01/14 07:03:18;;;;;;;1.25;0.95;;;18.60;48.80;;;;;;5084484;28;20253;-61
2021/01/14 07:05:53;;;;;;;1.10;0.77;;;18.60;48.80;;;;;;5084606;28;20173;-61
2021/01/14 07:08:18;;;;;;;1.75;1.00;;;18.60;48.80;;;;;;5084423;28;20267;-62
2021/01/14 07:10:57;;;;;;;1.27;0.93;;;18.50;48.80;;;;;;5084668;28;20178;-61
2021/01/14 07:13:23;;;;;;;1.10;1.00;;;18.50;48.80;;;;;;5067453;28;20185;-62
2021/01/14 07:15:48;;;;;;;1.65;1.10;;;18.50;48.90;;;;;;5066177;28;20578;-61
2021/01/14 07:18:14;;;;;;;1.33;0.98;;;18.40;49.10;;;;;;5066351;28;20228;-62
2021/01/14 07:20:39;;;;;;;1.48;1.15;;;18.20;49.20;;;;;;5066141;28;20166;-62
2021/01/14 07:23:05;;;;;;;1.73;1.00;;;18.20;49.50;;;;;;5066404;28;20236;-61
2021/01/14 07:25:30;;;;;;;1.00;0.85;;;18.10;49.60;;;;;;5066307;28;20227;-62
2021/01/14 07:27:56;;;;;;;1.63;0.90;;;18.00;49.60;;;;;;5065739;28;20184;-61
2021/01/14 07:30:21;;;;;;;2.10;1.00;;;18.00;49.60;;;;;;5083938;28;20276;-62
2021/01/14 07:32:58;;;;;;;1.10;0.80;;;18.00;49.70;;;;;;5084225;28;20177;-60
2021/01/14 07:35:33;;;;;;;2.15;1.35;;;18.00;49.70;;;;;;5083835;28;20177;-60
2021/01/14 07:37:59;;;;;;;1.23;0.77;;;18.00;49.60;;;;;;5084201;28;20503;-61
2021/01/14 07:40:28;;;;;;;1.15;0.80;;;18.00;49.70;;;;;;5066380;28;20223;-61
2021/01/14 07:42:54;;;;;;;1.38;1.08;;;18.00;49.50;;;;;;5084212;28;20667;-63
2021/01/14 07:45:20;;;;;;;1.33;0.90;;;18.10;49.80;;;;;;5066238;28;20178;-62
2021/01/14 07:47:45;;;;;;;1.40;0.95;;;18.10;49.60;;;;;;5066269;28;20249;-63
2021/01/14 07:50:21;;;;;;;2.15;1.08;;;18.10;49.50;;;;;;5084211;28;20231;-62
2021/01/14 07:52:48;;;;;;;0.82;0.77;;;18.10;49.50;;;;;;5083881;28;20185;-62
2021/01/14 07:55:31;;;;;;;0.98;0.80;;;18.10;49.50;;;;;;5084029;28;20632;-66
2021/01/14 07:58:23;;;;;;;1.23;0.80;;;18.00;49.70;;;;;;5067937;28;20191;-64
2021/01/14 08:01:08;;;;;;;3.03;0.90;;;17.80;49.90;;;;;;5083808;28;20170;-62
2021/01/14 08:03:43;;;;;;;1.30;0.85;;;17.80;50.20;;;;;;5065651;28;20166;-63
2021/01/14 08:06:19;;;;;;;1.25;0.95;;;17.70;50.80;;;;;;5083920;28;20200;-63
2021/01/14 08:09:00;;;;;;;0.82;0.82;;;17.70;51.00;;;;;;5084053;28;20264;-64
2021/01/14 08:11:27;;;;;;;1.58;1.00;;;17.70;51.00;;;;;;5083852;28;20181;-63
2021/01/14 08:14:12;;;;;;;1.13;0.93;;;17.70;50.90;;;;;;5083889;28;20678;-63
2021/01/14 08:16:41;;;;;;;2.58;1.10;;;17.80;50.90;;;;;;5083814;28;20201;-63
2021/01/14 08:19:28;;;;;;;1.52;0.75;;;17.80;50.80;;;;;;5083770;28;20178;-63
2021/01/14 08:22:03;;;;;;;3.10;0.90;;;17.80;50.70;;;;;;5083568;28;20264;-63
2021/01/14 08:24:44;;;;;;;2.10;0.88;;;17.90;50.60;;;;;;5083439;28;20181;-64
2021/01/14 08:27:22;;;;;;;1.05;0.90;;;17.90;50.60;;;;;;5065764;28;20341;-64
2021/01/14 08:30:05;;;;;;;1.40;1.00;;;17.90;50.60;;;;;;5083502;28;20238;-63
2021/01/14 08:32:38;;;;;;;1.35;0.80;;;17.80;50.70;;;;;;5069289;28;20300;-62
2021/01/14 08:35:11;;;;;;;1.77;0.98;;;17.70;50.80;;;;;;5087460;28;20184;-62
2021/01/14 08:37:38;;;;;;;0.95;0.85;;;17.70;51.00;;;;;;5087213;28;20174;-62
2021/01/14 08:40:08;;;;;;;1.50;0.80;;;17.60;51.10;;;;;;5068689;28;20211;-62
2021/01/14 08:42:41;;;;;;;1.15;0.90;;;17.50;51.20;;;;;;5087011;28;20214;-62
2021/01/14 08:45:11;;;;;;;1.85;0.70;;;17.50;51.20;;;;;;5087067;28;20284;-62
2021/01/14 08:47:53;;;;;;;1.25;0.70;;;17.50;51.30;;;;;;5087042;28;20192;-63
2021/01/14 08:50:31;;;;;;;1.02;0.70;;;17.60;51.40;;;;;;5087071;28;20173;-63
2021/01/14 08:52:57;;;;;;;1.30;0.98;;;17.60;51.30;;;;;;5086764;28;20542;-63
2021/01/14 08:55:22;;;;;;;1.27;0.70;;;17.60;51.20;;;;;;5068866;28;20177;-63
2021/01/14 08:57:52;;;;;;;0.85;0.70;;;17.60;51.10;;;;;;5068926;28;20174;-63
2021/01/14 09:00:18;;;;;;;1.15;0.70;;;17.60;51.20;;;;;;5086589;28;20313;-63
2021/01/14 09:02:44;;;;;;;1.45;0.90;;;17.60;51.20;;;;;;5068511;28;20225;-63
2021/01/14 09:05:10;;;;;;;0.93;0.50;;;17.60;51.20;;;;;;5068874;28;20330;-63
2021/01/14 09:07:36;;;;;;;1.63;1.10;;;17.70;51.30;;;;;;5086487;28;20240;-63
2021/01/14 09:10:02;;;;;;;0.85;0.60;;;17.70;51.20;;;;;;5086690;28;20174;-63
2021/01/14 09:12:27;;;;;;;1.08;0.70;;;17.70;51.20;;;;;;5086471;28;20914;-63
2021/01/14 09:14:53;;;;;;;0.77;0.55;;;17.70;51.10;;;;;;5086533;28;20605;-63
2021/01/14 09:17:18;;;;;;;1.23;0.70;;;17.80;51.10;;;;;;5087498;28;20537;-63
2021/01/14 09:19:53;;;;;;;1.92;0.80;;;17.70;51.10;;;;;;5094729;28;20644;-63
2021/01/14 09:22:25;;;;;;;0.80;0.68;;;17.70;51.10;;;;;;5098616;28;20227;-63
2021/01/14 09:24:51;;;;;;;1.88;0.75;;;17.60;51.10;;;;;;5106810;28;20226;-63
2021/01/14 09:27:16;;;;;;;0.70;0.65;;;17.60;51.20;;;;;;5087489;28;20627;-63
2021/01/14 09:29:42;;;;;;;1.30;0.85;;;17.60;51.40;;;;;;5086244;28;20312;-64
2021/01/14 09:32:13;;;;;;;0.80;0.70;;;17.50;51.50;;;;;;5086222;28;20186;-63
2021/01/14 09:34:39;;;;;;;0.90;0.70;;;17.50;51.50;;;;;;5076538;28;20577;-63
2021/01/14 09:37:15;;;;;;;0.95;0.75;;;17.50;51.50;;;;;;5106613;28;20169;-63
2021/01/14 09:39:41;;;;;;;1.02;0.85;;;17.60;51.50;;;;;;5106358;28;20179;-60
2021/01/14 09:42:07;;;;;;;2.22;0.70;;;17.60;51.50;;;;;;5105058;28;20216;-62
2021/01/14 09:44:32;;;;;;;3.42;1.05;;;17.60;51.60;;;;;;5088238;28;20623;-58
2021/01/14 09:46:58;;;;;;;1.95;0.90;;;17.60;52.40;;;;;;5071270;28;20180;-63
2021/01/14 09:49:23;;;;;;;2.38;1.10;;;17.60;52.00;;;;;;5087733;28;20168;-63
2021/01/14 09:51:51;;;;;;;2.88;0.70;;;17.60;52.30;;;;;;5077775;28;20208;-63
2021/01/14 09:54:17;;;;;;;1.20;0.90;;;17.60;52.20;;;;;;5085494;28;20173;-64
2021/01/14 09:56:49;;;;;;;1.63;0.93;;;17.50;52.20;;;;;;5085545;28;20170;-64
2021/01/14 09:59:25;;;;;;;2.45;0.90;;;17.50;52.40;;;;;;5085606;28;20592;-63
2021/01/14 10:02:00;;;;;;;2.05;1.05;;;17.60;52.30;;;;;;5068035;28;20948;-64
2021/01/14 10:04:26;;;;;;;3.17;1.08;;;17.60;52.30;;;;;;5068873;28;20173;-63
2021/01/14 10:07:13;;;;;;;1.50;0.80;;;17.60;52.10;;;;;;5085481;28;20169;-63
2021/01/14 10:09:39;;;;;;;3.08;1.02;;;17.70;52.10;;;;;;5067394;28;20185;-63
2021/01/14 10:12:05;;;;;;;1.83;0.90;;;17.70;52.10;;;;;;5067395;28;20177;-64
2021/01/14 10:14:30;;;;;;;1.55;1.10;;;17.70;52.10;;;;;;5067382;28;20260;-63
2021/01/14 10:16:56;;;;;;;3.80;1.10;;;17.70;52.20;;;;;;5085245;28;20185;-64
2021/01/14 10:19:21;;;;;;;2.78;1.00;;;17.60;52.20;;;;;;5066883;28;20943;-65
2021/01/14 10:21:48;;;;;;;2.00;0.90;;;17.60;52.30;;;;;;5085107;28;20506;-63
2021/01/14 10:24:27;;;;;;;1.65;0.90;;;17.60;52.40;;;;;;5085178;28;20169;-64
2021/01/14 10:26:54;;;;;;;2.92;0.80;;;17.50;52.40;;;;;;5102608;28;20192;-62
2021/01/14 10:29:29;;;;;;;1.75;0.77;;;17.50;52.30;;;;;;5087146;28;20193;-64
2021/01/14 10:32:00;;;;;;;1.60;0.70;;;17.60;52.20;;;;;;5085315;28;20173;-64
2021/01/14 10:34:39;;;;;;;1.98;0.90;;;17.60;52.20;;;;;;5066883;28;20173;-65
2021/01/14 10:37:04;;;;;;;2.50;1.00;;;17.60;52.10;;;;;;5085133;28;20173;-66
2021/01/14 10:39:40;;;;;;;3.70;1.52;;;17.60;52.00;;;;;;5084671;28;20174;-63
2021/01/14 10:42:34;;;;;;;1.38;0.77;;;17.60;52.00;;;;;;5084529;28;20732;-64
2021/01/14 10:45:23;;;;;;;4.22;1.05;;;17.60;52.20;;;;;;5084969;28;20205;-64
2021/01/14 10:47:49;;;;;;;2.67;1.25;;;17.60;52.30;;;;;;5071711;28;20190;-66
2021/01/14 10:50:17;;;;;;;2.80;0.98;;;17.50;52.30;;;;;;5066472;28;20178;-67
2021/01/14 10:52:56;;;;;;;2.15;0.98;;;17.50;52.40;;;;;;5049955;28;20178;-64
2021/01/14 10:55:22;;;;;;;1.85;1.10;;;17.50;52.30;;;;;;5084630;28;20678;-66
2021/01/14 10:57:52;;;;;;;3.45;1.00;;;17.50;52.40;;;;;;5084589;28;20166;-65
2021/01/14 11:00:19;;;;;;;3.03;1.00;;;17.50;52.40;;;;;;5084534;28;20951;-63
2021/01/14 11:02:45;;;;;;;1.73;0.90;;;17.60;52.30;;;;;;5083630;28;20675;-64
2021/01/14 11:05:14;;;;;;;3.13;1.00;;;17.60;52.30;;;;;;5084478;28;20176;-64
2021/01/14 11:07:40;;;;;;;1.25;0.90;;;17.60;52.10;;;;;;5084511;28;20174;-64
2021/01/14 11:10:09;;;;;;;1.77;0.90;;;17.60;52.10;;;;;;5084438;28;20624;-63
2021/01/14 11:13:01;;;;;;;4.20;1.17;;;17.60;52.20;;;;;;5066036;28;20181;-64
2021/01/14 11:15:27;;;;;;;1.80;0.90;;;17.60;52.20;;;;;;5083451;28;20227;-63
2021/01/14 11:17:53;;;;;;;1.77;1.23;;;17.60;52.30;;;;;;5083186;28;21075;-63
2021/01/14 11:20:19;;;;;;;3.40;1.30;;;17.50;52.30;;;;;;5084023;28;20626;-63
2021/01/14 11:22:44;;;;;;;1.70;0.90;;;17.50;52.40;;;;;;5084006;28;20218;-64
2021/01/14 11:25:10;;;;;;;1.63;1.10;;;17.50;52.50;;;;;;5087177;28;20195;-65
2021/01/14 11:27:36;;;;;;;2.22;1.00;;;17.40;52.50;;;;;;5104141;28;20173;-65
2021/01/14 11:30:01;;;;;;;2.45;1.38;;;17.50;52.50;;;;;;5104565;28;20222;-63
2021/01/14 11:32:27;;;;;;;2.20;1.10;;;17.50;52.40;;;;;;5104135;28;20199;-60
2021/01/14 11:34:55;;;;;;;2.60;1.20;;;17.50;52.40;;;;;;5104404;28;20186;-67
2021/01/14 11:37:20;;;;;;;1.70;0.80;;;17.40;52.50;;;;;;5104427;28;20170;-60
2021/01/14 11:39:46;;;;;;;2.08;1.25;;;17.40;52.60;;;;;;5104343;28;20187;-61
2021/01/14 11:42:11;;;;;;;3.95;1.10;;;17.40;52.40;;;;;;5104326;28;20209;-65
2021/01/14 11:44:37;;;;;;;2.85;1.27;;;17.40;52.70;;;;;;5104067;28;20177;-68
2021/01/14 11:47:02;;;;;;;3.63;1.33;;;17.40;52.30;;;;;;5104234;28;20534;-66
2021/01/14 11:49:29;;;;;;;2.92;1.13;;;17.40;52.60;;;;;;5103909;28;20318;-66
2021/01/14 11:51:54;;;;;;;2.67;1.20;;;17.30;52.70;;;;;;5104213;28;20174;-66
2021/01/14 11:54:20;;;;;;;6.60;1.67;;;17.30;53.10;;;;;;5104213;28;20204;-62
2021/01/14 11:56:45;;;;;;;2.05;1.50;;;17.30;52.90;;;;;;5104676;28;20615;-61
2021/01/14 11:59:11;;;;;;;2.25;1.35;;;17.30;52.60;;;;;;5104088;28;20501;-61
2021/01/14 12:01:36;;;;;;;2.30;1.08;;;17.30;52.90;;;;;;5104027;28;20209;-62
2021/01/14 12:04:02;;;;;;;2.13;1.10;;;17.30;52.90;;;;;;5104255;28;20174;-64
2021/01/14 12:06:27;;;;;;;3.58;1.10;;;17.30;53.00;;;;;;5107086;28;20169;-64
2021/01/14 12:08:53;;;;;;;2.80;1.20;;;17.20;52.80;;;;;;5108087;28;20216;-64
2021/01/14 12:11:19;;;;;;;1.63;1.25;;;17.30;52.90;;;;;;5107699;28;20177;-65
2021/01/14 12:13:45;;;;;;;2.60;1.15;;;17.20;52.70;;;;;;5107497;28;20602;-64
2021/01/14 12:16:10;;;;;;;3.22;0.90;;;17.20;52.70;;;;;;5107976;28;20249;-64
2021/01/14 12:18:36;;;;;;;2.00;1.00;;;17.20;52.80;;;;;;5107949;28;20646;-65
2021/01/14 12:21:01;;;;;;;1.85;0.98;;;17.20;52.90;;;;;;5107894;28;20169;-64
2021/01/14 12:23:27;;;;;;;2.92;1.10;;;17.10;52.90;;;;;;5107515;28;20177;-64
2021/01/14 12:25:52;;;;;;;2.13;1.08;;;17.20;52.90;;;;;;5098198;28;20261;-64
2021/01/14 12:28:18;;;;;;;1.40;1.30;;;17.20;52.70;;;;;;5087487;28;20174;-65
2021/01/14 12:30:44;;;;;;;2.13;1.17;;;17.20;52.70;;;;;;5069339;28;20987;-65
2021/01/14 12:33:09;;;;;;;2.55;1.30;;;17.20;52.90;;;;;;5087423;28;20166;-64
2021/01/14 12:35:35;;;;;;;2.42;1.15;;;17.20;53.00;;;;;;5086954;28;20174;-63
2021/01/14 12:38:00;;;;;;;2.13;1.20;;;17.30;52.90;;;;;;5087231;28;20174;-62
2021/01/14 12:40:26;;;;;;;2.38;1.40;;;17.30;52.80;;;;;;5087019;28;20763;-64
2021/01/14 12:42:51;;;;;;;2.03;0.98;;;17.30;52.80;;;;;;5086881;28;21014;-62
2021/01/14 12:45:19;;;;;;;1.10;0.82;;;17.40;52.80;;;;;;5086963;28;20259;-64
2021/01/14 12:47:44;;;;;;;2.05;1.25;;;17.60;52.60;;;;;;5087076;28;20231;-63
2021/01/14 12:50:10;;;;;;;1.02;0.85;;;17.80;52.30;;;;;;5086733;28;20174;-63
2021/01/14 12:52:36;;;;;;;2.92;1.00;;;18.20;51.70;;;;;;5086592;28;20625;-64
2021/01/14 12:55:01;;;;;;;1.35;1.08;;;18.60;51.10;;;;;;5086654;28;20604;-64
2021/01/14 12:57:27;;;;;;;1.42;0.80;;;18.80;50.50;;;;;;5086785;28;20299;-64